This demonstration page uses our WeatherBlox Daily Observations layout. Learn more.

Left ArrowRight Arrow

Hourly Observations for May 27, 2020

Temp ( °F °C ) Dew Point ( °F °C ) Humidity (%) Winds ( mph kmh ) Pressure ( in mb ) Visibility ( mi km ) Precip ( " mm )
12:54 am 00:54 Mostly Cloudy 60 15.6 55 12.8 84 84 Calm 29.87 1012 10 16.0934 0 0
1:54 am 01:54 Clear 59 15 56 13.3 90 90 Calm 29.87 1012 9 14.48406 0 0
2:54 am 02:54 Cloudy 60 15.6 55 12.8 84 84 NW 5 7 29.87 1012 10 16.0934 0 0
3:54 am 03:54 Cloudy 60 15.6 55 12.8 84 84 W 3 6 29.87 1012 10 16.0934 0 0
4:54 am 04:54 Mostly Clear 60 15.6 55 12.8 84 84 NW 7 11 29.86 1011 10 16.0934 0 0
5:54 am 05:54 Cloudy 60 15.6 55 12.8 84 84 NNW 5 7 29.88 1012 10 16.0934 0 0
6:54 am 06:54 Cloudy 60 15.6 55 12.8 84 84 NW 5 7 29.91 1013 10 16.0934 0 0
7:54 am 07:54 Cloudy 62 16.7 56 13.3 80 80 NNW 8 13 29.91 1013 10 16.0934 0 0
8:54 am 08:54 Cloudy 64 17.8 57 13.9 78 78 NNW 12 19 29.9 1013 10 16.0934 0 0
9:54 am 09:54 Cloudy 67 19.4 59 15 76 76 N 10 17 29.9 1013 10 16.0934 0 0
10:54 am 10:54 Cloudy 71 21.7 58 14.4 63 63 N 12 19 29.91 1013 10 16.0934 0 0
11:54 am 11:54 Partly Cloudy 73 22.8 59 15 62 62 N 9 15 29.91 1013 10 16.0934 0 0
12:54 pm 12:54 Cloudy 73 22.8 58 14.4 59 59 NNE 14 22 29.9 1013 10 16.0934 0 0
1:54 pm 13:54 Mostly Cloudy 76 24.4 59 15 56 56 NE 15 24 29.89 1012 10 16.0934 0 0
2:54 pm 14:54 Mostly Cloudy 74 23.3 58 14.4 57 57 NE 14 22 29.89 1012 10 16.0934 0 0
3:54 pm 15:54 Cloudy 71 21.7 58 14.4 63 63 NE 15 24 29.89 1012 10 16.0934 0 0
4:54 pm 16:54 Cloudy 73 22.8 58 14.4 59 59 NE 14 22 29.88 1012 10 16.0934 0 0
5:54 pm 17:54 Cloudy 73 22.8 61 16.1 66 66 NE 8 13 29.87 1012 10 16.0934 0 0
6:54 pm 18:54 Cloudy 75 23.9 61 16.1 62 62 NNE 10 17 29.87 1011 10 16.0934 0 0
7:54 pm 19:54 Cloudy 72 22.2 60 15.6 66 66 ENE 8 13 29.88 1012 10 16.0934 0 0
8:54 pm 20:54 Cloudy 70 21.1 60 15.6 71 71 NE 6 9 29.88 1012 10 16.0934 0 0
9:54 pm 21:54 Cloudy 69 20.6 60 15.6 73 73 N 6 9 29.9 1012 10 16.0934 0 0
10:54 pm 22:54 Mostly Cloudy 67 19.4 60 15.6 79 79 N 5 7 29.9 1013 10 16.0934 0 0
11:54 pm 23:54 Mostly Cloudy 66 18.9 60 15.6 81 81 N 7 11 29.89 1012 10 16.0934 0 0

Powered by AerisWeather